CheckWX is a tool to help pilots better visualize weather data.  It is not intended as a substitute for an official pre-flight weather briefing.

20:30:42 UTC

NLWW TAF
Hihifo Airport
Wallis Island, Samoa
TAF NLWW 291700Z 2918/3018 08006KT 9999 SCT020 TEMPO 2918/3012 2000 +SHRA BKN010 SCT016CB

Mar-29@
18:00 UTC

Mar-29 @ 18:00 UTC

Mar-30@
18:00 UTC

Mar-30 @ 18:00 UTC

TAF NLWW 291700Z 2918/3018 08006KT 9999 SCT020
Wind
  • 080° at 6 KTS
Cloud Levels
  • Scattered at 2,000' AGL

Mar-29@
18:00 UTC

Mar-29 @ 18:00 UTC

Mar-30@
12:00 UTC

Mar-30 @ 12:00 UTC

TEMPO 2918/3012 2000 +SHRA BKN010 SCT016CB

Temporary

Temporary Changes expected for less than half the time period

Conditions
Heavy Showers, Rain
Cloud Levels
  • Broken at 1,000' AGL
  • Scattered at 1,600' AGL